Terminal Aerodrome Forecast
Issued by NWS

Home | Current Version | Previous Version | Text Only | Print | Product List | Glossary On
Versions: 1 2 3 4 5 6 7 8 9 10 11 12 13 14 15 16 17 18 19 20
000
FTUS41 KBTV 041121
TAFRUT
TAF
KRUT 041121Z 0412/0512 24009KT P6SM BKN020 OVC030
     FM041900 28008KT P6SM BKN035 BKN100
     FM042300 30006KT P6SM SCT040 BKN060
      AMD LTD TO CLD VIS AND WIND=

USA.gov is the U.S. government's official web portal to all federal, state and local government web resources and services.